Providence, Rhode Island
Traffic Map
Current Weather Conditions
Providence, Rhode Island
Clear
Clear
55°
Feels Like: 55°
Wind Chill: 55° Ceiling: Unl
Heat Index: 55° Visibility: 10mi
Dew Point: 25° Wind: 9mph
Humidity: 31% Direction: 300° (WNW)
Pressure: 30.1in Gusts: 20mph
Raw Report DataKPVD 230451Z AUTO 30008G17KT 10SM CLR 13/M04 A3010 RMK AO2 SLP192 T01281039 402390100
Traffic Incident Summary
Active as of:
Severity:
Category:
InformationThere was an issue retrieving the traffic information for this location. Please try a different location or try again shortly.
Advertisements
Track Severe Weather on mobile